Actualité

 

LogoChallengeNewsletter

Challenge du Pays Boulonnais

Voir le règlement complet du Challenge du Pays Boulonnais 2019

Classement aprés 8 épreuves au 15/11/19.

La cagnotte "Chronopale 2019" à partager entre tous les coureurs classés sur les 11 épreuves sera de 1 200€

Aprés 8 épreuves vous êtes 25 à pouvoir vous partager la cagnotte.

Date des épreuves

10/02/19  Les 6 Miles de Pont de Briques

23/03/19 Les Foulées Guinoises 10 Km

24/03/19  Foulées du Printemps à Nesles 10 Km

01/05/19  La Ronde du Fort de l'Heurt à Le Portel 10 Km (nature plage et falaise)

25/05/19  Semi Marathon de la Terre des 2 Caps à Wacquinghem (Sauf pour les cadets) 

09/06/19  La Win Run à Wimereux 10 Km

30/06/19  Boulogne 10 Km

13/10/19  Les Foulées de la Santé à Saint Martin 10 Km

17/11/19 Les Foulées Outreloises à Outreau  10 Km       

24/11/19  Les Foulées de la Sainte Catherine à Menneville 10 Km

07/12/19  Rues & Run Desvroises 10 Km

 

Nous contacter

Chronopale
59 Rue Léonce TOBO
62200 Boulogne sur mer
06 60 17 22 13
contact@chronopale.fr
www.chronopale.fr

 

42Km

42 Km Trail des Mille Monts du 05/05/19 (Reelle 42)
Rang Dossard Nom Prénom Temps Cat Rang Cat Ecart Ecart Cat Club Vitesse Km/h Temps au Km
1 2160 DAMBRUNE Julien 03:17:12 SEM 1 00:00:00 00:00:00 - 12,779 04:42
2 2307 LEDOUX Geoffrey 03:29:16 SEM 2 00:12:04 00:12:04 LOUCH?ANGELES 12,042 04:59
3 2313 DE GROOTE Nicolas 03:31:10 SEM 3 00:13:58 00:13:58 S/L ASPTT LILLE METROPOLE 11,934 05:02
4 2209 HAUW Gregory 03:34:08 V1M 1 00:16:56 00:00:00 - 11,768 05:06
5 2262 MINARD Matthieu 03:34:10 V1M 2 00:16:58 00:00:02 AC OUTREAU 11,767 05:06
6 2166 DECOSTER Rémi 03:40:28 SEM 4 00:23:16 00:23:16 - 11,430 05:15
7 2332 ROGUET Jérôme 03:41:45 SEM 5 00:24:33 00:24:33 UNIRUN 11,364 05:17
8 2299 VANKELST Laurent 03:42:28 V1M 3 00:25:16 00:08:20 HAC 11,328 05:18
9 2274 FARDOUX Gauthier 03:42:55 SEM 6 00:25:43 00:25:43 BLARINGHEM TRAIL 11,305 05:18
10 2301 PECQUEUR Jérémy 03:44:11 SEM 7 00:26:59 00:26:59 LA ROSIERE 11,241 05:20
11 2164 DE SCHOUWER Nicolas 03:45:20 SEM 8 00:28:08 00:28:08 - 11,183 05:22
12 2347 BUCKMAN Franck 03:46:32 V1M 4 00:29:20 00:12:24 - 11,124 05:24
13 2306 DOUILLET Antoine 03:50:41 SEM 9 00:33:29 00:33:29 LONGUENESSE NATURE AVENTURE 10,924 05:30
14 2243 ROSZAK Christopher 03:51:14 SEM 10 00:34:02 00:34:02 - 10,898 05:30
15 2336 BOST Kevin 03:51:19 SEM 11 00:34:07 00:34:07 USMBM 10,894 05:30
16 2258 LEDOUX Vincent 03:55:32 SEM 12 00:38:20 00:38:20 AC OUTREAU 10,699 05:36
17 2161 DAUCHELLE Nicolas 03:58:44 SEM 13 00:41:32 00:41:32 - 10,556 05:41
18 2342 BALY François 04:00:51 SEM 14 00:43:39 00:43:39 - 10,463 05:44
19 2188 ETIENNE Jerome 04:01:08 SEM 15 00:43:56 00:43:56 - 10,451 05:44
20 2241 RIBARD Vincent 04:01:33 V1M 5 00:44:21 00:27:25 - 10,433 05:45
21 2227 MAGNIER Tony 04:03:49 SEM 16 00:46:37 00:46:37 - 10,336 05:48
22 2285 JOVENAUX Rémy 04:06:33 SEM 17 00:49:21 00:49:21 CARABINIERS DE BILLY MONTIGNY 10,221 05:52
23 2349 SAUVAGE Frederic 04:08:15 SEM 18 00:51:03 00:51:03 LE PORTEL 10,151 05:55
24 2208 HAREMZA Stephane 04:08:56 V1M 6 00:51:44 00:34:48 - 10,123 05:56
25 2305 BERTELOOT Jackie 04:09:10 V3M 1 00:51:58 00:00:00 LONGUENESSE NATURE AVENTURE 10,114 05:56
26 2275 PETILLON Alexis 04:13:20 SEM 19 00:56:08 00:56:08 BLARINGHEM TRAIL 9,947 06:02
27 2320 BAYART Emmanuel 04:14:41 V1M 7 00:57:29 00:40:33 STADE OLYMPIQUE ATHLETISME 9,895 06:04
28 2270 FLAMENT Christophe 04:14:42 V2M 1 00:57:30 00:00:00 BERCK ATHLéTISME CôTE D'OPALE 9,894 06:04
29 2239 RAVENT Mathieu 04:15:47 V1M 8 00:58:35 00:41:39 - 9,852 06:05
30 2202 GOUILLIART Romain 04:16:08 SEM 20 00:58:56 00:58:56 - 9,839 06:06
31 2268 DELASSUS Matthieu 04:16:54 SEM 21 00:59:42 00:59:42 ATHLETIC VILLACERF TROYES SEINE 9,809 06:07
32 2291 POCHET Aurélien 04:17:44 SEM 22 01:00:32 01:00:32 DéPARTEMENT DU PAS-DE-CALAIS 9,778 06:08
33 2211 HOCHART Jerome 04:18:08 V1M 9 01:00:56 00:44:00 - 9,762 06:09
34 2178 DOUCHEZ Stephane 04:18:08 V1M 10 01:00:56 00:44:00 - 9,762 06:09
35 2216 LAMBERT Gauthier 04:18:27 SEM 23 01:01:15 01:01:15 - 9,750 06:09
36 2287 JOURDANT Emmanuelle 04:19:09 V1F 1 01:01:57 00:00:00 COT 9,724 06:10
37 2256 KRONUS Joel 04:19:20 V2M 2 01:02:08 00:04:38 AC CAPELLOIS 9,717 06:10
38 2322 MILLOT Stéphane 04:20:20 V1M 11 01:03:08 00:46:12 STADE OLYMPIQUE CALAIS ATHLéTISME 9,680 06:12
39 2191 FLAJOLLET Didier 04:20:43 V1M 12 01:03:31 00:46:35 - 9,666 06:12
40 2174 DERYCKE Mickael 04:21:14 V1M 13 01:04:02 00:47:06 - 9,647 06:13
41 2281 PORET Gregory 04:21:27 V1M 14 01:04:15 00:47:19 BOULOGNE ATHLETIQUE CLUB 9,639 06:14
42 2277 LECIGNE David 04:21:32 V1M 15 01:04:20 00:47:24 BOULOGNE AC 9,635 06:14
43 2298 MESSIEN Fanny 04:21:49 V1F 2 01:04:37 00:02:40 HAC 9,625 06:14
44 2210 HERBIN Aurélien 04:22:20 SEM 24 01:05:08 01:05:08 - 9,606 06:15
45 2199 GEY Antoine 04:23:54 SEM 25 01:06:42 01:06:42 - 9,549 06:17
46 2257 FLOURET Stéphanie 04:24:18 V1F 3 01:07:06 00:05:09 AC OUTREAU 9,535 06:18
47 2340 BAILLET Christian 04:25:18 V3M 2 01:08:06 00:16:08 - 9,499 06:19
48 2176 DICQUE Alexandre 04:26:15 SEM 26 01:09:03 01:09:03 - 9,465 06:20
49 2230 MORIN Antoine 04:26:57 SEM 27 01:09:45 01:09:45 - 9,440 06:21
50 2323 DEWET Wilfried 04:27:14 V1M 16 01:10:02 00:53:06 TEAM ARD RUN 9,430 06:22
51 2267 CRESSON Pascal 04:27:18 V2M 3 01:10:06 00:12:36 AS MARCK ATHLéTISME 9,428 06:22
52 2200 GOEURY Charles henri 04:27:47 SEM 28 01:10:35 01:10:35 - 9,411 06:23
53 2290 JELONEK Jean-luc 04:27:57 V2M 4 01:10:45 00:13:15 DéPARTEMENT DU PAS-DE-CALAIS 9,405 06:23
54 2326 DRUJENT Cyrille 04:28:03 V1M 17 01:10:51 00:53:55 TEAM TRAIL 9,401 06:23
55 2311 HUNOUT Sebastien 04:29:12 V1M 18 01:12:00 00:55:04 RADIO TRAIL 9,361 06:25
56 2324 LEFEBVRE Stéphane 04:29:20 V1M 19 01:12:08 00:55:12 TEAM ARD'RUN 9,356 06:25
57 2338 THUMEREL Benoît 04:29:35 SEM 29 01:12:23 01:12:23 WATTFOOTING 9,348 06:25
58 2170 DELHELLE David 04:29:52 V1M 20 01:12:40 00:55:44 - 9,338 06:26
59 2343 BARBIER Yohann 04:30:04 SEM 30 01:12:52 01:12:52 - 9,331 06:26
60 2219 LEFEBVRE Sebastien 04:31:31 V1M 21 01:14:19 00:57:23 - 9,281 06:28
61 2329 GRARE Aurélien 04:31:35 SEM 31 01:14:23 01:14:23 TEAM TRAIL OPALE 9,279 06:28
62 2190 FICQUET Romain 04:31:39 SEM 32 01:14:27 01:14:27 - 9,277 06:28
63 2278 MANNESSIEZ Fabien 04:31:51 SEM 33 01:14:39 01:14:39 BOULOGNE ATHLETIC CLUB 9,270 06:28
64 2155 CHAUSSOY Charles 04:32:27 V2M 5 01:15:15 00:17:45 - 9,249 06:29
65 2259 MERLIER Alain 04:32:28 V1M 22 01:15:16 00:58:20 AC OUTREAU 9,249 06:29
66 2261 ROBERT Emmanuel 04:32:45 V1M 23 01:15:33 00:58:37 AC OUTREAU 9,239 06:30
67 2158 CRESSON Karl 04:33:55 V2M 6 01:16:43 00:19:13 - 9,200 06:31
68 2263 PAYEN Jérémie 04:33:58 V1M 24 01:16:46 00:59:50 AC OUTREAU ESPRIT TRAIL 9,198 06:31
69 2233 NEPVEU Aurélien 04:35:22 SEM 34 01:18:10 01:18:10 - 9,151 06:33
70 2235 PINCET Pierre-adrien 04:38:11 SEM 35 01:20:59 01:20:59 - 9,059 06:37
71 2341 BAILLY Alban 04:38:48 V1M 25 01:21:36 01:04:40 - 9,039 06:38
72 2316 BRIDOUX Christine 04:38:57 V2F 1 01:21:45 00:00:00 SPORT PLUS 9,034 06:38
73 2203 GRENU Henrik 04:39:17 V2M 7 01:22:05 00:24:35 - 9,023 06:39
74 2300 BECQUART Christophe 04:39:40 SEM 36 01:22:28 01:22:28 JOGGING CLUB LAPUGNOIS 9,011 06:40
75 2280 MAQUINGHEN Céline 04:41:17 V1F 4 01:24:05 00:22:08 BOULOGNE ATHLéTIC CLUB 8,959 06:42
76 2279 MAQUINGHEN Christophe 04:41:17 V1M 26 01:24:05 01:07:09 BOULOGNE ATHLéTIC CLUB 8,959 06:42
77 2206 HADRI Sebastien 04:41:59 SEM 37 01:24:47 01:24:47 - 8,937 06:43
78 2183 DUPREZ Amaury 04:42:18 ESM 1 01:25:06 00:00:00 - 8,927 06:43
79 2330 GOUILLART Jeremy 04:44:57 SEM 38 01:27:45 01:27:45 TRAILEUR FOU 8,844 06:47
80 2253 WALDHOFF Nicolas 04:44:57 SEM 39 01:27:45 01:27:45 - 8,844 06:47
81 2266 PARMENT Fabien 04:46:07 V1M 27 01:28:55 01:11:59 ARTOIS ATHLETISME BRUAY 8,808 06:49
82 2156 CLERBOUT Marc 04:46:54 V2M 8 01:29:42 00:32:12 - 8,784 06:50
83 2159 CUVELIER David 04:47:00 V1M 28 01:29:48 01:12:52 - 8,780 06:50
84 2165 DECATOIRE Tony 04:48:43 V1M 29 01:31:31 01:14:35 - 8,728 06:52
85 2327 GODART Jean-christophe 04:49:34 V1M 30 01:32:22 01:15:26 TEAM TRAIL 62 8,703 06:54
86 2310 GOURLAY Reynald 04:49:58 SEM 40 01:32:46 01:32:46 RADIO TRAIL 8,691 06:54
87 2319 KNOCKAERT Wouter 04:49:58 V1M 31 01:32:46 01:15:50 SPORTICS TRAIL TEAM 8,691 06:54
88 2318 DEGRENDEL Sofie 04:49:58 V1F 5 01:32:46 00:30:49 SPORTICS TRAIL TEAM 8,691 06:54
89 2213 KLEIN Romain 04:50:10 SEM 41 01:32:58 01:32:58 - 8,685 06:55
90 2180 DUCLOIE Jerome 04:50:13 V1M 32 01:33:01 01:16:05 - 8,683 06:55
91 2175 DHALLEINE Jonathan 04:50:53 V1M 33 01:33:41 01:16:45 - 8,663 06:56
92 2334 BOULANGER Julien 04:51:12 V1M 34 01:34:00 01:17:04 USCUD 8,654 06:56
93 2246 SOMMERARD Franck 04:52:22 V1M 35 01:35:10 01:18:14 - 8,619 06:58
94 2251 VERMERSCH Francis 04:52:22 V1M 36 01:35:10 01:18:14 - 8,619 06:58
95 2321 TIERTANT Romain 04:53:22 V1M 37 01:36:10 01:19:14 STADE OLYMPIQUE CALAIS ATHLETISME 8,590 06:59
96 2308 D HAUDT Larry 04:54:07 V1M 38 01:36:55 01:19:59 OAH HAZEBROUCK 8,568 07:00
97 2309 OUTREMAN Didier 04:54:07 V2M 9 01:36:55 00:39:25 OAH HAZEBROUCK 8,568 07:00
98 2296 GUILLEMAIN Laurent 04:55:22 SEM 42 01:38:10 01:38:10 GPMD 8,532 07:02
99 2195 GALLIEZ David 04:55:47 V1M 39 01:38:35 01:21:39 - 8,520 07:03
100 2333 KYNDT Dany 04:56:42 V2M 10 01:39:30 00:42:00 UNITI ISLAND 8,493 07:04
101 2276 PERRET Didier 04:57:30 SEM 43 01:40:18 01:40:18 BLARINGHEM TRAIL 8,471 07:05
102 2171 DELIGNY Samuel 04:57:31 V1M 40 01:40:19 01:23:23 - 8,470 07:05
103 2289 DUHAMEL Grégoire 04:58:08 V1M 41 01:40:56 01:24:00 DéPARTEMENT DU PAS-DE-CALAIS 8,453 07:06
104 2194 FRANCOIS Jerome 04:58:35 V1M 42 01:41:23 01:24:27 - 8,440 07:07
105 2229 MARTINOT Sébastien 04:59:32 V1M 43 01:42:20 01:25:24 - 8,413 07:08
106 2240 RETAUX Claudy 04:59:32 V1M 44 01:42:20 01:25:24 - 8,413 07:08
107 2168 DEHOSSE Olivier 05:00:28 V1M 45 01:43:16 01:26:20 - 8,387 07:09
108 2187 DURNEZ Aurélien 05:00:29 ESM 2 01:43:17 00:18:11 - 8,386 07:09
109 2167 DEGLAVE Fabien 05:00:29 V1M 46 01:43:17 01:26:21 - 8,386 07:09
110 2222 LEROUGE Julien 05:00:29 ESM 3 01:43:17 00:18:11 - 8,386 07:09
111 2153 CARDON Martin 05:01:47 SEM 44 01:44:35 01:44:35 - 8,350 07:11
112 2249 ULTRÉ Eric 05:02:49 V2M 11 01:45:37 00:48:07 - 8,322 07:13
113 2273 DEGELCKE Thierry 05:02:56 V2M 12 01:45:44 00:48:14 BLARINGHEM TRAIL 8,319 07:13
114 2252 VIGREUX Jérôme 05:03:04 V1M 47 01:45:52 01:28:56 - 8,315 07:13
115 2232 NEMPONT Frederic 05:03:04 V1M 48 01:45:52 01:28:56 - 8,315 07:13
116 2312 DUBARRY David 05:03:17 V1M 49 01:46:05 01:29:09 RUNNERS EN NORD 8,309 07:13
117 2247 TERNY Enrique 05:03:21 V1M 50 01:46:09 01:29:13 - 8,307 07:13
118 2271 VERHAMME Vincent 05:03:46 V1M 51 01:46:34 01:29:38 BERCK ATHLéTISME CôTé OPALE 8,296 07:14
119 2218 LEBEURRE Nicolas 05:03:49 SEM 45 01:46:37 01:46:37 - 8,294 07:14
120 2234 NOEL Christian 05:05:02 V1M 52 01:47:50 01:30:54 - 8,261 07:16
121 2248 TRELHU Denis 05:05:40 V1M 53 01:48:28 01:31:32 - 8,244 07:17
122 2244 ROZÉ Cédric 05:07:12 SEM 46 01:50:00 01:50:00 - 8,203 07:19
123 2286 ALAPETITE Remy 05:07:31 SEM 47 01:50:19 01:50:19 CE ALSTOM 8,195 07:19
124 2348 CHOUROT Lucien 05:09:27 V3M 3 01:52:15 01:00:17 LE PORTEL 8,143 07:22
125 2193 FOURNIER Rémi 05:10:33 SEM 48 01:53:21 01:53:21 - 8,115 07:24
126 2335 EECKEMAN Thomas 05:10:33 SEM 49 01:53:21 01:53:21 USLJ TRAIL 8,115 07:24
127 2345 BERNIER Cyril 05:10:42 SEM 50 01:53:30 01:53:30 - 8,111 07:24
128 2254 WEPPE Sébastien 05:10:56 V1M 54 01:53:44 01:36:48 - 8,105 07:24
129 2344 BELFER Alain 05:13:06 V2M 13 01:55:54 00:58:24 - 8,049 07:27
130 2325 DHAINAUT Jérôme 05:13:41 V1M 55 01:56:29 01:39:33 TEAM RRM ANNEZIN 8,034 07:28
131 2157 COUSSIN Thierry 05:14:11 SEM 51 01:56:59 01:56:59 - 8,021 07:29
132 2260 MORZA Yanick 05:14:51 V1M 56 01:57:39 01:40:43 AC OUTREAU 8,004 07:30
133 2217 LANDRÉ Antoine 05:15:49 SEM 52 01:58:37 01:58:37 - 7,979 07:31
134 2293 QUAEGEBEUR Jerome 05:16:46 SEM 53 01:59:34 01:59:34 ENTRE-COTE TEAM TRAIL 7,955 07:33
135 2212 JEDAT Emilie 05:16:46 SEF 1 01:59:34 00:00:00 - 7,955 07:33
136 2226 LYNEN Ingrid 05:19:12 V1F 6 02:02:00 01:00:03 - 7,895 07:36
137 2185 DUQUENOY Mandy 05:21:43 V1F 7 02:04:31 01:02:34 - 7,833 07:40
138 2184 DUQUENOY Alain 05:21:44 V2M 14 02:04:32 01:07:02 - 7,833 07:40
139 2282 BERNARD David 05:27:50 V1M 57 02:10:38 01:53:42 CAC 7,687 07:48
140 2283 DELBE Pascale 05:28:45 V3F 1 02:11:33 00:00:00 CAC 7,665 07:50
141 2152 CABROL Arnaud 05:29:33 SEM 54 02:12:21 02:12:21 - 7,647 07:51
142 2186 DURDUX Rémi 05:29:33 SEM 55 02:12:21 02:12:21 - 7,647 07:51
143 2264 VERLYCK Thibaut 05:32:26 V1M 58 02:15:14 01:58:18 ACVA / VAFA SECTION TRAIL 7,580 07:55
144 2288 TROUSSON Nicolas 05:32:26 SEM 56 02:15:14 02:15:14 CôTE D'OPALE TRIATHLON 7,580 07:55
145 2179 DUBOIS Richard 05:33:22 V1M 59 02:16:10 01:59:14 - 7,559 07:56
146 2265 CASTRIQUE Marie 05:37:11 V2F 2 02:19:59 00:58:14 ARTOIS ATHLéTISME 7,474 08:02
147 2225 LOUIS Jean-philippe 05:38:52 V1M 60 02:21:40 02:04:44 - 7,437 08:04
148 2236 PINTO FERREIRA Abel 05:40:57 V1M 61 02:23:45 02:06:49 - 7,391 08:07
149 2189 FERNANDES Olivier 05:40:57 V1M 62 02:23:45 02:06:49 - 7,391 08:07
150 2220 LEGRAND Matthieu 05:43:05 V1M 63 02:25:53 02:08:57 - 7,345 08:10
151 2272 BOIN Jessy 05:43:05 V1M 64 02:25:53 02:08:57 BLANC NEZ TRIATHLON 7,345 08:10
152 2198 GERNEZ Thomas 05:43:06 SEM 57 02:25:54 02:25:54 - 7,345 08:10
153 2250 VANDENHEULE Frédéric 05:45:16 V1M 65 02:28:04 02:11:08 - 7,299 08:13
154 2173 DEMOULIN Steeve 05:46:26 V1M 66 02:29:14 02:12:18 - 7,274 08:15
155 2346 BREDELLE Loic 05:46:27 V1M 67 02:29:15 02:12:19 - 7,274 08:15
156 2181 DUFLOS Patrice 05:52:25 V2M 15 02:35:13 01:37:43 - 7,151 08:23
157 2214 LAFORCE Alexandre 05:54:53 SEM 58 02:37:41 02:37:41 - 7,101 08:27
158 2215 LAFORCE Olivier 05:54:54 SEM 59 02:37:42 02:37:42 - 7,101 08:27
159 2221 LEGRAND Fabrice 05:59:31 V1M 68 02:42:19 02:25:23 - 7,009 08:34
160 2192 FOURNET Maxime 06:01:30 SEM 60 02:44:18 02:44:18 - 6,971 08:36
161 2177 DIEBOLD Jean-pierre 06:01:30 SEM 61 02:44:18 02:44:18 - 6,971 08:36
162 2231 MULLER Fabrice 06:03:23 V1M 69 02:46:11 02:29:15 - 6,935 08:39
163 2303 LORIDAN Ludovic 06:03:24 SEM 62 02:46:12 02:46:12 LNA 6,935 08:39
164 2304 LORIDAN Caroline 06:03:24 SEF 2 02:46:12 00:46:38 LNA 6,935 08:39
165 2245 SERRÉ Yannick 06:06:50 V2M 16 02:49:38 01:52:08 - 6,870 08:44
166 2201 GONTON Raphaël 06:07:07 SEM 63 02:49:55 02:49:55 - 6,864 08:44
167 2196 GANNE Jocelyne 06:07:07 V1F 8 02:49:55 01:47:58 - 6,864 08:44
168 2197 GANNE Olivier 06:07:07 V1M 70 02:49:55 02:32:59 - 6,864 08:44
169 2255 RUSQUART Corinne 06:07:07 V2F 3 02:49:55 01:28:10 #RUNCROIX59 6,864 08:44
170 2182 DUHEM Hervé 06:47:22 V1M 71 03:30:10 03:13:14 - 6,186 09:42